• Join FlightAware (Why Join?)
  • Login
  • US Flag 
03:51AM EDT


 

Airport Tracker/Info


-or-


 

Live Flight TrackerFlight Track Log ✈ CES2595 ✈ 20-Apr-2013 ✈ ZPPP / KMG - VTCC / CNX

Flight Track Log - Related Links

Times and Time Zones

All times are in EDT time to prevent confusion due to time zone crossing. See the CES2595 flight status page for this flight to view local times or setup timezone preferences in your user account.

Time Position Orientation Groundspeed Altitude Reporting Facility
EDT Latitude Longitude Course Direction KTS MPH feet Rate Location/Type
08:52AM 24.1610 102.3125 211° Southwest  Level Estimated
08:53AM 24.0885 102.2654 211° Southwest  Level Estimated
08:54AM 24.0160 102.2184 211° Southwest  Level Estimated
08:55AM 23.9435 102.1715 211° Southwest  Level Estimated
08:56AM 23.8709 102.1246 211° Southwest  Level Estimated
08:57AM 23.7984 102.0777 211° Southwest  Level Estimated
08:58AM 23.7258 102.0309 211° Southwest  Level Estimated
08:59AM 23.6533 101.9842 211° Southwest  Level Estimated
09:00AM 23.5807 101.9375 211° Southwest  Level Estimated
09:01AM 23.5081 101.8909 211° Southwest  Level Estimated
09:02AM 23.4355 101.8443 210° Southwest  Level Estimated
09:03AM 23.3628 101.7977 210° Southwest  Level Estimated
09:04AM 23.2902 101.7513 210° Southwest  Level Estimated
09:05AM 23.2176 101.7048 210° Southwest  Level Estimated
09:06AM 23.1449 101.6584 210° Southwest  Level Estimated
09:07AM 23.0722 101.6121 210° Southwest  Level Estimated
09:08AM 22.9995 101.5658 210° Southwest  Level Estimated
09:09AM 22.9268 101.5196 210° Southwest  Level Estimated
09:10AM 22.8541 101.4734 210° Southwest  Level Estimated
09:11AM 22.7813 101.4273 210° Southwest  Level Estimated
09:12AM 22.7086 101.3812 210° Southwest  Level Estimated
09:13AM 22.6358 101.3352 210° Southwest  Level Estimated
09:14AM 22.5631 101.2892 210° Southwest  Level Estimated
09:15AM 22.4903 101.2432 210° Southwest  Level Estimated
09:16AM 22.4175 101.1974 210° Southwest  Level Estimated
09:17AM 22.3447 101.1515 210° Southwest  Level Estimated
09:18AM 22.2718 101.1057 210° Southwest  Level Estimated
09:19AM 22.1990 101.0600 210° Southwest  Level Estimated
09:20AM 22.1261 101.0143 210° Southwest  Level Estimated
09:21AM 22.0533 100.9686 210° Southwest  Level Estimated
09:22AM 21.9804 100.9230 210° Southwest  Level Estimated
09:23AM 21.9075 100.8775 210° Southwest  Level Estimated
09:24AM 21.8346 100.8320 210° Southwest  Level Estimated
09:25AM 21.7617 100.7865 210° Southwest  Level Estimated
09:26AM 21.6888 100.7411 210° Southwest  Level Estimated
09:27AM 21.6158 100.6957 210° Southwest  Level Estimated
09:28AM 21.5429 100.6504 210° Southwest  Level Estimated
09:29AM 21.4699 100.6051 210° Southwest  Level Estimated
09:30AM 21.3969 100.5599 210° Southwest  Level Estimated
09:31AM 21.3239 100.5147 210° Southwest  Level Estimated
09:32AM 21.2509 100.4695 210° Southwest  Level Estimated
09:33AM 21.1779 100.4244 210° Southwest  Level Estimated
09:34AM 21.1049 100.3793 210° Southwest  Level Estimated
09:35AM 21.0319 100.3343 210° Southwest  Level Estimated
09:36AM 20.9588 100.2894 210° Southwest  Level Estimated
09:37AM 20.8858 100.2445 210° Southwest  Level Estimated
09:38AM 20.8127 100.1996 210° Southwest  Level Estimated
09:39AM 20.7396 100.1547 210° Southwest  Level Estimated
09:40AM 20.6665 100.1099 210° Southwest  Level Estimated
09:41AM 20.5934 100.0652 210° Southwest  Level Estimated
09:42AM 20.5203 100.0205 210° Southwest  Level Estimated
09:43AM 20.4472 99.9758 210° Southwest  Level Estimated
09:44AM 20.3740 99.9312 210° Southwest  Level Estimated
09:45AM 20.3009 99.8866 210° Southwest  Level Estimated
09:46AM 20.2277 99.8421 210° Southwest  Level Estimated
09:47AM 20.1545 99.7976 210° Southwest  Level Estimated
09:48AM 20.0813 99.7531 210° Southwest  Level Estimated
09:49AM 20.0081 99.7087 210° Southwest  Level Estimated
09:50AM 19.9232 99.6572 210° Southwest  Level Estimated
09:51AM 19.8383 99.6058 210° Southwest  Level Estimated
09:52AM 19.7533 99.5545 210° Southwest  Level Estimated
09:53AM 19.6684 99.5032 210° Southwest  Level Estimated
09:54AM 19.5834 99.4519 210° Southwest  Level Estimated
09:55AM 19.4984 99.4007 210° Southwest  Level Estimated
09:56AM 19.4134 99.3496 210° Southwest  Level Estimated
09:57AM 19.3284 99.2985 210° Southwest  Level Estimated
09:58AM 19.2433 99.2475 210° Southwest  Level Estimated
09:59AM 19.1583 99.1965 210° Southwest  Level Estimated
10:00AM 19.0732 99.1456 210° Southwest  Level Estimated
10:01AM 18.9881 99.0947 209° Southwest  Level Estimated
10:02AM 18.9030 99.0439 209° Southwest  Level Estimated
10:03AM 18.8179 98.9931 209° Southwest  Level Estimated
10:04AM 18.7668 98.9626 209° Southwest  Level Estimated
10:05AM 18.7668 98.9626 128° Southeast  Level Estimated
10:06AM 18.7668 98.9626 128° Southeast  Level Estimated
10:07AM 18.7668 98.9626 128° Southeast  Level Estimated
10:08AM 18.7668 98.9626 128° Southeast  Level Estimated
10:09AM 18.7668 98.9626 128° Southeast  Level Estimated
10:10AM 18.7668 98.9626 128° Southeast  Level Estimated